sensor_id;sensor_type;location;lat;lon;timestamp;P1;durP1;ratioP1;P2;durP2;ratioP2
20336;SDS011;10326;53.660;10.200;2023-02-28T00:01:18;7.28;;;5.18;;
20336;SDS011;10326;53.660;10.200;2023-02-28T00:03:45;6.32;;;4.88;;
20336;SDS011;10326;53.660;10.200;2023-02-28T00:06:13;6.28;;;4.53;;
20336;SDS011;10326;53.660;10.200;2023-02-28T00:08:42;6.68;;;4.63;;
20336;SDS011;10326;53.660;10.200;2023-02-28T00:11:11;6.13;;;4.93;;
20336;SDS011;10326;53.660;10.200;2023-02-28T00:13:40;6.68;;;5.32;;
20336;SDS011;10326;53.660;10.200;2023-02-28T00:16:11;5.93;;;4.70;;
20336;SDS011;10326;53.660;10.200;2023-02-28T00:18:41;7.22;;;4.72;;
20336;SDS011;10326;53.660;10.200;2023-02-28T00:21:08;5.35;;;4.30;;
20336;SDS011;10326;53.660;10.200;2023-02-28T00:23:35;4.63;;;3.92;;
20336;SDS011;10326;53.660;10.200;2023-02-28T00:26:04;4.75;;;3.72;;
20336;SDS011;10326;53.660;10.200;2023-02-28T00:28:32;4.57;;;3.67;;
20336;SDS011;10326;53.660;10.200;2023-02-28T00:30:59;5.03;;;3.50;;
20336;SDS011;10326;53.660;10.200;2023-02-28T00:33:26;5.18;;;3.47;;
20336;SDS011;10326;53.660;10.200;2023-02-28T00:36:01;4.28;;;3.80;;
20336;SDS011;10326;53.660;10.200;2023-02-28T00:38:31;5.15;;;3.90;;
20336;SDS011;10326;53.660;10.200;2023-02-28T00:40:59;5.13;;;3.92;;
20336;SDS011;10326;53.660;10.200;2023-02-28T00:43:31;5.27;;;3.63;;
20336;SDS011;10326;53.660;10.200;2023-02-28T00:45:59;4.32;;;3.65;;
20336;SDS011;10326;53.660;10.200;2023-02-28T00:48:26;7.00;;;4.18;;
20336;SDS011;10326;53.660;10.200;2023-02-28T00:50:53;5.72;;;4.00;;
20336;SDS011;10326;53.660;10.200;2023-02-28T00:53:20;4.88;;;4.20;;
20336;SDS011;10326;53.660;10.200;2023-02-28T00:55:48;4.63;;;3.65;;
20336;SDS011;10326;53.660;10.200;2023-02-28T00:58:15;4.28;;;3.60;;
20336;SDS011;10326;53.660;10.200;2023-02-28T01:00:44;5.15;;;3.30;;
20336;SDS011;10326;53.660;10.200;2023-02-28T01:03:14;5.38;;;4.10;;
20336;SDS011;10326;53.660;10.200;2023-02-28T01:05:42;5.47;;;3.50;;
20336;SDS011;10326;53.660;10.200;2023-02-28T01:08:09;4.43;;;3.80;;
20336;SDS011;10326;53.660;10.200;2023-02-28T01:10:36;6.50;;;3.72;;
20336;SDS011;10326;53.660;10.200;2023-02-28T01:13:04;5.15;;;3.80;;
20336;SDS011;10326;53.660;10.200;2023-02-28T01:15:31;5.07;;;3.70;;
20336;SDS011;10326;53.660;10.200;2023-02-28T01:18:00;3.90;;;3.50;;
20336;SDS011;10326;53.660;10.200;2023-02-28T01:20:29;4.22;;;3.55;;
20336;SDS011;10326;53.660;10.200;2023-02-28T01:22:56;5.07;;;3.40;;
20336;SDS011;10326;53.660;10.200;2023-02-28T01:25:24;4.07;;;3.60;;
20336;SDS011;10326;53.660;10.200;2023-02-28T01:27:51;4.03;;;3.30;;
20336;SDS011;10326;53.660;10.200;2023-02-28T01:30:18;5.30;;;3.40;;
20336;SDS011;10326;53.660;10.200;2023-02-28T01:32:46;4.30;;;3.30;;
20336;SDS011;10326;53.660;10.200;2023-02-28T01:35:14;5.15;;;3.35;;
20336;SDS011;10326;53.660;10.200;2023-02-28T01:37:43;4.35;;;3.33;;
20336;SDS011;10326;53.660;10.200;2023-02-28T01:40:10;5.33;;;3.37;;
20336;SDS011;10326;53.660;10.200;2023-02-28T01:42:39;4.97;;;3.70;;
20336;SDS011;10326;53.660;10.200;2023-02-28T01:45:14;4.32;;;3.58;;
20336;SDS011;10326;53.660;10.200;2023-02-28T01:47:49;3.30;;;2.80;;
20336;SDS011;10326;53.660;10.200;2023-02-28T01:50:21;4.65;;;2.92;;
20336;SDS011;10326;53.660;10.200;2023-02-28T01:52:51;3.60;;;3.20;;
20336;SDS011;10326;53.660;10.200;2023-02-28T01:55:24;3.27;;;2.97;;
20336;SDS011;10326;53.660;10.200;2023-02-28T01:57:57;4.53;;;2.97;;
20336;SDS011;10326;53.660;10.200;2023-02-28T02:00:29;3.30;;;2.47;;
20336;SDS011;10326;53.660;10.200;2023-02-28T02:02:58;4.10;;;3.20;;
20336;SDS011;10326;53.660;10.200;2023-02-28T02:05:31;4.20;;;3.10;;
20336;SDS011;10326;53.660;10.200;2023-02-28T02:08:01;3.13;;;2.80;;
20336;SDS011;10326;53.660;10.200;2023-02-28T02:10:32;4.63;;;3.40;;
20336;SDS011;10326;53.660;10.200;2023-02-28T02:13:10;3.20;;;2.90;;
20336;SDS011;10326;53.660;10.200;2023-02-28T02:15:53;4.33;;;3.03;;
20336;SDS011;10326;53.660;10.200;2023-02-28T02:18:30;4.17;;;2.60;;
20336;SDS011;10326;53.660;10.200;2023-02-28T02:27:26;3.87;;;2.70;;
20336;SDS011;10326;53.660;10.200;2023-02-28T02:30:35;3.57;;;3.00;;
20336;SDS011;10326;53.660;10.200;2023-02-28T02:37:08;3.27;;;2.40;;
20336;SDS011;10326;53.660;10.200;2023-02-28T02:39:46;4.17;;;3.03;;
20336;SDS011;10326;53.660;10.200;2023-02-28T02:42:20;3.07;;;2.50;;
20336;SDS011;10326;53.660;10.200;2023-02-28T02:44:53;4.00;;;2.43;;
20336;SDS011;10326;53.660;10.200;2023-02-28T02:47:26;3.20;;;2.87;;
20336;SDS011;10326;53.660;10.200;2023-02-28T02:49:57;3.80;;;2.73;;
20336;SDS011;10326;53.660;10.200;2023-02-28T02:52:34;4.30;;;2.80;;
20336;SDS011;10326;53.660;10.200;2023-02-28T02:55:07;3.20;;;2.70;;
20336;SDS011;10326;53.660;10.200;2023-02-28T02:57:38;2.97;;;2.70;;
20336;SDS011;10326;53.660;10.200;2023-02-28T03:00:13;3.43;;;2.60;;
20336;SDS011;10326;53.660;10.200;2023-02-28T03:02:46;3.80;;;2.60;;
20336;SDS011;10326;53.660;10.200;2023-02-28T03:05:17;3.73;;;2.80;;
20336;SDS011;10326;53.660;10.200;2023-02-28T03:07:48;3.77;;;3.13;;
20336;SDS011;10326;53.660;10.200;2023-02-28T03:10:29;4.37;;;3.10;;
20336;SDS011;10326;53.660;10.200;2023-02-28T03:13:15;3.77;;;2.60;;
20336;SDS011;10326;53.660;10.200;2023-02-28T03:16:21;4.17;;;2.57;;
20336;SDS011;10326;53.660;10.200;2023-02-28T03:19:02;3.60;;;2.70;;
20336;SDS011;10326;53.660;10.200;2023-02-28T03:21:50;3.53;;;2.93;;
20336;SDS011;10326;53.660;10.200;2023-02-28T03:24:33;4.23;;;2.70;;
20336;SDS011;10326;53.660;10.200;2023-02-28T03:27:08;4.23;;;2.90;;
20336;SDS011;10326;53.660;10.200;2023-02-28T03:29:43;3.23;;;2.47;;
20336;SDS011;10326;53.660;10.200;2023-02-28T03:32:16;6.00;;;2.53;;
20336;SDS011;10326;53.660;10.200;2023-02-28T03:34:51;3.40;;;2.50;;
20336;SDS011;10326;53.660;10.200;2023-02-28T03:37:25;3.50;;;2.60;;
20336;SDS011;10326;53.660;10.200;2023-02-28T03:39:57;4.87;;;2.70;;
20336;SDS011;10326;53.660;10.200;2023-02-28T03:42:31;3.57;;;2.63;;
20336;SDS011;10326;53.660;10.200;2023-02-28T03:45:02;3.70;;;2.80;;
20336;SDS011;10326;53.660;10.200;2023-02-28T03:47:36;3.40;;;2.90;;
20336;SDS011;10326;53.660;10.200;2023-02-28T03:50:09;3.13;;;2.60;;
20336;SDS011;10326;53.660;10.200;2023-02-28T03:52:42;3.40;;;2.83;;
20336;SDS011;10326;53.660;10.200;2023-02-28T03:55:17;3.67;;;2.73;;
20336;SDS011;10326;53.660;10.200;2023-02-28T03:57:48;3.57;;;2.83;;
20336;SDS011;10326;53.660;10.200;2023-02-28T04:00:25;4.07;;;2.87;;
20336;SDS011;10326;53.660;10.200;2023-02-28T04:02:56;3.37;;;2.70;;
20336;SDS011;10326;53.660;10.200;2023-02-28T04:05:23;4.67;;;3.10;;
20336;SDS011;10326;53.660;10.200;2023-02-28T04:07:51;4.17;;;2.53;;
20336;SDS011;10326;53.660;10.200;2023-02-28T04:10:20;4.43;;;2.80;;
20336;SDS011;10326;53.660;10.200;2023-02-28T04:12:48;4.13;;;3.00;;
20336;SDS011;10326;53.660;10.200;2023-02-28T04:15:15;3.40;;;2.80;;
20336;SDS011;10326;53.660;10.200;2023-02-28T04:17:42;5.27;;;2.93;;
20336;SDS011;10326;53.660;10.200;2023-02-28T04:20:10;4.17;;;2.50;;
20336;SDS011;10326;53.660;10.200;2023-02-28T04:22:38;3.13;;;2.70;;
20336;SDS011;10326;53.660;10.200;2023-02-28T04:25:05;3.17;;;2.67;;
20336;SDS011;10326;53.660;10.200;2023-02-28T04:27:35;4.53;;;2.90;;
20336;SDS011;10326;53.660;10.200;2023-02-28T04:30:02;4.70;;;2.77;;
20336;SDS011;10326;53.660;10.200;2023-02-28T04:32:30;3.20;;;2.60;;
20336;SDS011;10326;53.660;10.200;2023-02-28T04:34:57;4.27;;;2.70;;
20336;SDS011;10326;53.660;10.200;2023-02-28T04:37:24;6.13;;;2.83;;
20336;SDS011;10326;53.660;10.200;2023-02-28T04:39:53;7.63;;;3.20;;
20336;SDS011;10326;53.660;10.200;2023-02-28T04:42:21;4.70;;;2.87;;
20336;SDS011;10326;53.660;10.200;2023-02-28T04:44:49;5.77;;;3.20;;
20336;SDS011;10326;53.660;10.200;2023-02-28T04:47:16;4.63;;;2.50;;
20336;SDS011;10326;53.660;10.200;2023-02-28T04:49:44;3.80;;;2.87;;
20336;SDS011;10326;53.660;10.200;2023-02-28T04:52:10;3.70;;;2.87;;
20336;SDS011;10326;53.660;10.200;2023-02-28T04:54:38;5.20;;;2.70;;
20336;SDS011;10326;53.660;10.200;2023-02-28T04:57:05;4.97;;;3.10;;
20336;SDS011;10326;53.660;10.200;2023-02-28T04:59:32;4.70;;;2.97;;
20336;SDS011;10326;53.660;10.200;2023-02-28T05:02:01;4.30;;;2.60;;
20336;SDS011;10326;53.660;10.200;2023-02-28T05:04:31;3.80;;;2.80;;
20336;SDS011;10326;53.660;10.200;2023-02-28T05:06:59;4.07;;;2.70;;
20336;SDS011;10326;53.660;10.200;2023-02-28T05:09:26;3.33;;;2.60;;
20336;SDS011;10326;53.660;10.200;2023-02-28T05:11:54;5.50;;;3.13;;
20336;SDS011;10326;53.660;10.200;2023-02-28T05:14:21;2.93;;;2.50;;
20336;SDS011;10326;53.660;10.200;2023-02-28T05:16:48;3.90;;;2.80;;
20336;SDS011;10326;53.660;10.200;2023-02-28T05:19:17;3.63;;;2.80;;
20336;SDS011;10326;53.660;10.200;2023-02-28T05:21:49;3.37;;;2.70;;
20336;SDS011;10326;53.660;10.200;2023-02-28T05:24:17;4.17;;;2.97;;
20336;SDS011;10326;53.660;10.200;2023-02-28T05:26:48;4.60;;;2.67;;
20336;SDS011;10326;53.660;10.200;2023-02-28T05:29:17;4.00;;;2.57;;
20336;SDS011;10326;53.660;10.200;2023-02-28T05:31:44;4.53;;;2.90;;
20336;SDS011;10326;53.660;10.200;2023-02-28T05:34:12;3.83;;;2.87;;
20336;SDS011;10326;53.660;10.200;2023-02-28T05:36:42;3.10;;;2.70;;
20336;SDS011;10326;53.660;10.200;2023-02-28T05:39:09;3.20;;;2.90;;
20336;SDS011;10326;53.660;10.200;2023-02-28T05:41:38;3.50;;;2.97;;
20336;SDS011;10326;53.660;10.200;2023-02-28T05:44:06;3.97;;;2.87;;
20336;SDS011;10326;53.660;10.200;2023-02-28T05:46:34;4.53;;;3.03;;
20336;SDS011;10326;53.660;10.200;2023-02-28T05:49:01;7.33;;;2.80;;
20336;SDS011;10326;53.660;10.200;2023-02-28T05:51:29;4.50;;;2.83;;
20336;SDS011;10326;53.660;10.200;2023-02-28T05:53:59;3.90;;;2.87;;
20336;SDS011;10326;53.660;10.200;2023-02-28T05:56:27;3.93;;;3.00;;
20336;SDS011;10326;53.660;10.200;2023-02-28T05:58:54;4.27;;;2.70;;
20336;SDS011;10326;53.660;10.200;2023-02-28T06:01:23;4.80;;;2.80;;
20336;SDS011;10326;53.660;10.200;2023-02-28T06:03:58;7.07;;;2.80;;
20336;SDS011;10326;53.660;10.200;2023-02-28T06:06:25;4.30;;;2.67;;
20336;SDS011;10326;53.660;10.200;2023-02-28T06:08:53;3.83;;;2.57;;
20336;SDS011;10326;53.660;10.200;2023-02-28T06:11:21;3.77;;;2.50;;
20336;SDS011;10326;53.660;10.200;2023-02-28T06:13:52;4.10;;;2.80;;
20336;SDS011;10326;53.660;10.200;2023-02-28T06:16:21;3.47;;;2.83;;
20336;SDS011;10326;53.660;10.200;2023-02-28T06:18:48;3.67;;;2.60;;
20336;SDS011;10326;53.660;10.200;2023-02-28T06:21:15;6.40;;;3.10;;
20336;SDS011;10326;53.660;10.200;2023-02-28T06:23:42;3.90;;;2.83;;
20336;SDS011;10326;53.660;10.200;2023-02-28T06:26:10;4.20;;;2.80;;
20336;SDS011;10326;53.660;10.200;2023-02-28T06:28:39;3.43;;;2.53;;
20336;SDS011;10326;53.660;10.200;2023-02-28T06:31:07;4.47;;;2.90;;
20336;SDS011;10326;53.660;10.200;2023-02-28T06:33:35;4.00;;;3.10;;
20336;SDS011;10326;53.660;10.200;2023-02-28T06:36:03;3.83;;;3.40;;
20336;SDS011;10326;53.660;10.200;2023-02-28T06:38:32;5.50;;;3.50;;
20336;SDS011;10326;53.660;10.200;2023-02-28T06:41:00;3.90;;;3.17;;
20336;SDS011;10326;53.660;10.200;2023-02-28T06:43:28;3.97;;;3.30;;
20336;SDS011;10326;53.660;10.200;2023-02-28T06:45:59;5.20;;;3.37;;
20336;SDS011;10326;53.660;10.200;2023-02-28T06:48:28;4.60;;;4.03;;
20336;SDS011;10326;53.660;10.200;2023-02-28T06:51:00;5.57;;;4.80;;
20336;SDS011;10326;53.660;10.200;2023-02-28T06:53:29;7.03;;;5.13;;
20336;SDS011;10326;53.660;10.200;2023-02-28T06:55:56;8.60;;;5.00;;
20336;SDS011;10326;53.660;10.200;2023-02-28T06:58:23;5.90;;;4.90;;
20336;SDS011;10326;53.660;10.200;2023-02-28T07:00:50;6.73;;;5.00;;
20336;SDS011;10326;53.660;10.200;2023-02-28T07:03:19;7.00;;;4.87;;
20336;SDS011;10326;53.660;10.200;2023-02-28T07:05:47;8.90;;;5.20;;
20336;SDS011;10326;53.660;10.200;2023-02-28T07:08:14;8.90;;;5.00;;
20336;SDS011;10326;53.660;10.200;2023-02-28T07:10:41;6.97;;;4.47;;
20336;SDS011;10326;53.660;10.200;2023-02-28T07:13:08;7.77;;;4.90;;
20336;SDS011;10326;53.660;10.200;2023-02-28T07:15:35;7.27;;;5.60;;
20336;SDS011;10326;53.660;10.200;2023-02-28T07:18:03;6.00;;;5.20;;
20336;SDS011;10326;53.660;10.200;2023-02-28T07:20:32;6.90;;;5.37;;
20336;SDS011;10326;53.660;10.200;2023-02-28T07:22:59;6.70;;;5.80;;
20336;SDS011;10326;53.660;10.200;2023-02-28T07:25:27;10.63;;;6.17;;
20336;SDS011;10326;53.660;10.200;2023-02-28T07:27:55;7.70;;;5.43;;
20336;SDS011;10326;53.660;10.200;2023-02-28T07:30:24;6.33;;;5.07;;
20336;SDS011;10326;53.660;10.200;2023-02-28T07:32:51;6.13;;;5.10;;
20336;SDS011;10326;53.660;10.200;2023-02-28T07:35:19;8.03;;;4.83;;
20336;SDS011;10326;53.660;10.200;2023-02-28T07:37:48;6.20;;;5.13;;
20336;SDS011;10326;53.660;10.200;2023-02-28T07:40:15;7.17;;;4.83;;
20336;SDS011;10326;53.660;10.200;2023-02-28T07:42:43;5.90;;;4.50;;
20336;SDS011;10326;53.660;10.200;2023-02-28T07:45:15;5.40;;;4.20;;
20336;SDS011;10326;53.660;10.200;2023-02-28T07:47:43;5.03;;;4.07;;
20336;SDS011;10326;53.660;10.200;2023-02-28T07:50:11;5.40;;;4.00;;
20336;SDS011;10326;53.660;10.200;2023-02-28T07:52:40;4.80;;;3.90;;
20336;SDS011;10326;53.660;10.200;2023-02-28T07:55:10;5.70;;;4.13;;
20336;SDS011;10326;53.660;10.200;2023-02-28T07:57:38;6.77;;;4.27;;
20336;SDS011;10326;53.660;10.200;2023-02-28T08:00:07;6.57;;;4.07;;
20336;SDS011;10326;53.660;10.200;2023-02-28T08:02:39;4.23;;;3.83;;
20336;SDS011;10326;53.660;10.200;2023-02-28T08:05:06;5.07;;;3.30;;
20336;SDS011;10326;53.660;10.200;2023-02-28T08:07:34;5.23;;;3.70;;
20336;SDS011;10326;53.660;10.200;2023-02-28T08:10:01;5.63;;;4.03;;
20336;SDS011;10326;53.660;10.200;2023-02-28T08:12:32;4.43;;;4.00;;
20336;SDS011;10326;53.660;10.200;2023-02-28T08:14:59;6.30;;;4.07;;
20336;SDS011;10326;53.660;10.200;2023-02-28T08:17:26;5.20;;;3.60;;
20336;SDS011;10326;53.660;10.200;2023-02-28T08:19:53;6.90;;;3.97;;
20336;SDS011;10326;53.660;10.200;2023-02-28T08:22:20;5.63;;;4.03;;
20336;SDS011;10326;53.660;10.200;2023-02-28T08:24:48;5.87;;;4.50;;
20336;SDS011;10326;53.660;10.200;2023-02-28T08:27:15;5.77;;;4.20;;
20336;SDS011;10326;53.660;10.200;2023-02-28T08:29:43;7.27;;;4.40;;
20336;SDS011;10326;53.660;10.200;2023-02-28T08:32:10;4.77;;;4.20;;
20336;SDS011;10326;53.660;10.200;2023-02-28T08:34:38;4.70;;;3.97;;
20336;SDS011;10326;53.660;10.200;2023-02-28T08:37:06;5.23;;;4.07;;
20336;SDS011;10326;53.660;10.200;2023-02-28T08:39:33;5.10;;;3.70;;
20336;SDS011;10326;53.660;10.200;2023-02-28T08:42:01;4.63;;;4.03;;
20336;SDS011;10326;53.660;10.200;2023-02-28T08:44:29;6.57;;;4.33;;
20336;SDS011;10326;53.660;10.200;2023-02-28T08:46:57;4.70;;;3.70;;
20336;SDS011;10326;53.660;10.200;2023-02-28T08:49:24;5.20;;;3.90;;
20336;SDS011;10326;53.660;10.200;2023-02-28T08:51:51;4.60;;;3.07;;
20336;SDS011;10326;53.660;10.200;2023-02-28T08:54:20;4.93;;;3.67;;
20336;SDS011;10326;53.660;10.200;2023-02-28T08:56:48;7.23;;;3.40;;
20336;SDS011;10326;53.660;10.200;2023-02-28T08:59:15;4.70;;;2.33;;
20336;SDS011;10326;53.660;10.200;2023-02-28T09:01:42;4.28;;;3.05;;
20336;SDS011;10326;53.660;10.200;2023-02-28T09:04:11;5.00;;;3.20;;
20336;SDS011;10326;53.660;10.200;2023-02-28T09:06:38;3.40;;;3.00;;
20336;SDS011;10326;53.660;10.200;2023-02-28T09:09:06;4.93;;;3.30;;
20336;SDS011;10326;53.660;10.200;2023-02-28T09:11:34;3.40;;;3.10;;
20336;SDS011;10326;53.660;10.200;2023-02-28T09:14:03;4.00;;;3.33;;
20336;SDS011;10326;53.660;10.200;2023-02-28T09:16:31;3.60;;;3.25;;
20336;SDS011;10326;53.660;10.200;2023-02-28T09:18:59;4.13;;;2.90;;
20336;SDS011;10326;53.660;10.200;2023-02-28T09:21:28;3.30;;;2.50;;
20336;SDS011;10326;53.660;10.200;2023-02-28T09:23:55;4.10;;;3.05;;
20336;SDS011;10326;53.660;10.200;2023-02-28T09:26:22;4.05;;;3.08;;
20336;SDS011;10326;53.660;10.200;2023-02-28T09:28:51;4.90;;;3.10;;
20336;SDS011;10326;53.660;10.200;2023-02-28T09:31:20;4.43;;;3.20;;
20336;SDS011;10326;53.660;10.200;2023-02-28T09:33:51;3.05;;;2.75;;
20336;SDS011;10326;53.660;10.200;2023-02-28T09:36:21;2.40;;;2.20;;
20336;SDS011;10326;53.660;10.200;2023-02-28T09:38:51;3.97;;;2.40;;
20336;SDS011;10326;53.660;10.200;2023-02-28T09:41:19;4.85;;;2.72;;
20336;SDS011;10326;53.660;10.200;2023-02-28T09:43:49;3.90;;;2.55;;
20336;SDS011;10326;53.660;10.200;2023-02-28T09:46:27;2.88;;;2.20;;
20336;SDS011;10326;53.660;10.200;2023-02-28T09:48:58;2.72;;;2.10;;
20336;SDS011;10326;53.660;10.200;2023-02-28T09:51:33;3.95;;;2.70;;
20336;SDS011;10326;53.660;10.200;2023-02-28T09:54:16;3.65;;;2.35;;
20336;SDS011;10326;53.660;10.200;2023-02-28T09:56:48;4.13;;;2.58;;
20336;SDS011;10326;53.660;10.200;2023-02-28T09:59:25;3.20;;;2.42;;
20336;SDS011;10326;53.660;10.200;2023-02-28T10:02:04;3.63;;;2.65;;
20336;SDS011;10326;53.660;10.200;2023-02-28T10:05:01;3.15;;;2.75;;
20336;SDS011;10326;53.660;10.200;2023-02-28T10:07:37;4.53;;;2.67;;
20336;SDS011;10326;53.660;10.200;2023-02-28T10:10:21;3.95;;;2.60;;
20336;SDS011;10326;53.660;10.200;2023-02-28T10:12:55;4.82;;;2.70;;
20336;SDS011;10326;53.660;10.200;2023-02-28T10:15:26;4.55;;;3.00;;
20336;SDS011;10326;53.660;10.200;2023-02-28T10:17:57;2.95;;;2.65;;
20336;SDS011;10326;53.660;10.200;2023-02-28T10:20:28;3.78;;;2.92;;
20336;SDS011;10326;53.660;10.200;2023-02-28T10:23:01;6.05;;;2.83;;
20336;SDS011;10326;53.660;10.200;2023-02-28T10:25:39;3.72;;;2.58;;
20336;SDS011;10326;53.660;10.200;2023-02-28T10:28:09;3.85;;;3.13;;
20336;SDS011;10326;53.660;10.200;2023-02-28T10:30:39;3.28;;;2.55;;
20336;SDS011;10326;53.660;10.200;2023-02-28T10:33:14;4.53;;;3.13;;
20336;SDS011;10326;53.660;10.200;2023-02-28T10:35:47;3.90;;;2.90;;
20336;SDS011;10326;53.660;10.200;2023-02-28T10:38:15;3.90;;;2.83;;
20336;SDS011;10326;53.660;10.200;2023-02-28T10:40:47;3.10;;;2.80;;
20336;SDS011;10326;53.660;10.200;2023-02-28T10:43:18;3.50;;;2.88;;
20336;SDS011;10326;53.660;10.200;2023-02-28T10:45:58;3.63;;;2.72;;
20336;SDS011;10326;53.660;10.200;2023-02-28T10:48:30;4.32;;;2.65;;
20336;SDS011;10326;53.660;10.200;2023-02-28T10:51:01;2.70;;;2.40;;
20336;SDS011;10326;53.660;10.200;2023-02-28T10:53:31;2.75;;;2.47;;
20336;SDS011;10326;53.660;10.200;2023-02-28T10:56:04;2.72;;;2.25;;
20336;SDS011;10326;53.660;10.200;2023-02-28T10:58:46;2.45;;;2.25;;
20336;SDS011;10326;53.660;10.200;2023-02-28T11:01:21;3.58;;;2.38;;
20336;SDS011;10326;53.660;10.200;2023-02-28T11:03:50;4.35;;;3.05;;
20336;SDS011;10326;53.660;10.200;2023-02-28T11:06:19;3.25;;;2.10;;
20336;SDS011;10326;53.660;10.200;2023-02-28T11:08:49;4.22;;;2.70;;
20336;SDS011;10326;53.660;10.200;2023-02-28T11:11:21;4.22;;;2.92;;
20336;SDS011;10326;53.660;10.200;2023-02-28T11:13:52;3.47;;;2.85;;
20336;SDS011;10326;53.660;10.200;2023-02-28T11:16:31;2.40;;;2.20;;
20336;SDS011;10326;53.660;10.200;2023-02-28T11:19:00;2.30;;;2.10;;
20336;SDS011;10326;53.660;10.200;2023-02-28T11:21:28;2.33;;;2.13;;
20336;SDS011;10326;53.660;10.200;2023-02-28T11:24:00;3.45;;;2.40;;
20336;SDS011;10326;53.660;10.200;2023-02-28T11:26:39;2.38;;;2.10;;
20336;SDS011;10326;53.660;10.200;2023-02-28T11:29:10;3.92;;;2.50;;
20336;SDS011;10326;53.660;10.200;2023-02-28T11:31:49;2.95;;;2.30;;
20336;SDS011;10326;53.660;10.200;2023-02-28T11:34:43;3.75;;;2.42;;
20336;SDS011;10326;53.660;10.200;2023-02-28T11:37:12;3.38;;;2.67;;
20336;SDS011;10326;53.660;10.200;2023-02-28T11:39:42;3.22;;;2.22;;
20336;SDS011;10326;53.660;10.200;2023-02-28T11:42:15;3.17;;;2.88;;
20336;SDS011;10326;53.660;10.200;2023-02-28T11:45:04;3.15;;;2.80;;
20336;SDS011;10326;53.660;10.200;2023-02-28T11:47:46;3.50;;;2.42;;
20336;SDS011;10326;53.660;10.200;2023-02-28T11:50:24;2.92;;;2.35;;
20336;SDS011;10326;53.660;10.200;2023-02-28T11:53:10;3.10;;;2.30;;
20336;SDS011;10326;53.660;10.200;2023-02-28T11:55:46;3.10;;;2.45;;
20336;SDS011;10326;53.660;10.200;2023-02-28T11:58:25;4.03;;;2.53;;
20336;SDS011;10326;53.660;10.200;2023-02-28T12:04:11;4.10;;;2.47;;
20336;SDS011;10326;53.660;10.200;2023-02-28T12:06:52;2.88;;;2.58;;
20336;SDS011;10326;53.660;10.200;2023-02-28T12:09:37;3.03;;;2.33;;
20336;SDS011;10326;53.660;10.200;2023-02-28T12:12:21;3.03;;;2.33;;
20336;SDS011;10326;53.660;10.200;2023-02-28T12:15:04;2.90;;;2.50;;
20336;SDS011;10326;53.660;10.200;2023-02-28T12:17:49;4.32;;;2.40;;
20336;SDS011;10326;53.660;10.200;2023-02-28T12:20:30;3.20;;;2.55;;
20336;SDS011;10326;53.660;10.200;2023-02-28T12:23:10;3.83;;;2.00;;
20336;SDS011;10326;53.660;10.200;2023-02-28T12:26:06;2.53;;;2.20;;
20336;SDS011;10326;53.660;10.200;2023-02-28T12:28:41;2.35;;;1.98;;
20336;SDS011;10326;53.660;10.200;2023-02-28T12:31:14;2.58;;;2.30;;
20336;SDS011;10326;53.660;10.200;2023-02-28T12:33:48;4.18;;;2.35;;
20336;SDS011;10326;53.660;10.200;2023-02-28T12:36:19;3.20;;;2.10;;
20336;SDS011;10326;53.660;10.200;2023-02-28T12:38:50;3.20;;;1.98;;
20336;SDS011;10326;53.660;10.200;2023-02-28T12:41:22;2.90;;;2.20;;
20336;SDS011;10326;53.660;10.200;2023-02-28T12:43:57;3.08;;;2.08;;
20336;SDS011;10326;53.660;10.200;2023-02-28T12:46:32;3.25;;;2.00;;
20336;SDS011;10326;53.660;10.200;2023-02-28T12:49:04;6.05;;;2.00;;
20336;SDS011;10326;53.660;10.200;2023-02-28T12:51:37;2.17;;;2.00;;
20336;SDS011;10326;53.660;10.200;2023-02-28T12:54:07;3.22;;;2.40;;
20336;SDS011;10326;53.660;10.200;2023-02-28T12:56:44;2.92;;;1.90;;
20336;SDS011;10326;53.660;10.200;2023-02-28T12:59:17;2.60;;;2.20;;
20336;SDS011;10326;53.660;10.200;2023-02-28T13:01:57;2.38;;;2.17;;
20336;SDS011;10326;53.660;10.200;2023-02-28T13:08:02;4.03;;;2.28;;
20336;SDS011;10326;53.660;10.200;2023-02-28T13:10:47;3.17;;;2.20;;
20336;SDS011;10326;53.660;10.200;2023-02-28T13:13:20;2.63;;;2.10;;
20336;SDS011;10326;53.660;10.200;2023-02-28T13:15:56;2.42;;;1.90;;
20336;SDS011;10326;53.660;10.200;2023-02-28T13:18:34;2.58;;;1.73;;
20336;SDS011;10326;53.660;10.200;2023-02-28T13:21:04;3.33;;;2.40;;
20336;SDS011;10326;53.660;10.200;2023-02-28T13:23:36;2.92;;;2.45;;
20336;SDS011;10326;53.660;10.200;2023-02-28T13:26:07;2.67;;;2.10;;
20336;SDS011;10326;53.660;10.200;2023-02-28T13:44:13;2.60;;;2.40;;
20336;SDS011;10326;53.660;10.200;2023-02-28T13:49:54;2.70;;;2.25;;
20336;SDS011;10326;53.660;10.200;2023-02-28T13:52:47;7.28;;;3.67;;
20336;SDS011;10326;53.660;10.200;2023-02-28T13:55:24;3.42;;;2.33;;
20336;SDS011;10326;53.660;10.200;2023-02-28T13:58:02;2.65;;;2.40;;
20336;SDS011;10326;53.660;10.200;2023-02-28T14:00:43;4.50;;;2.53;;
20336;SDS011;10326;53.660;10.200;2023-02-28T14:03:37;2.67;;;2.45;;
20336;SDS011;10326;53.660;10.200;2023-02-28T14:06:25;3.10;;;2.65;;
20336;SDS011;10326;53.660;10.200;2023-02-28T14:08:58;3.50;;;2.45;;
20336;SDS011;10326;53.660;10.200;2023-02-28T14:11:30;3.65;;;2.53;;
20336;SDS011;10326;53.660;10.200;2023-02-28T14:14:00;3.20;;;2.80;;
20336;SDS011;10326;53.660;10.200;2023-02-28T14:16:35;3.17;;;2.85;;
20336;SDS011;10326;53.660;10.200;2023-02-28T14:19:10;3.72;;;2.38;;
20336;SDS011;10326;53.660;10.200;2023-02-28T14:21:48;3.00;;;2.60;;
20336;SDS011;10326;53.660;10.200;2023-02-28T14:24:47;2.70;;;2.50;;
20336;SDS011;10326;53.660;10.200;2023-02-28T14:27:37;3.85;;;1.90;;
20336;SDS011;10326;53.660;10.200;2023-02-28T14:30:25;4.88;;;2.08;;
20336;SDS011;10326;53.660;10.200;2023-02-28T14:33:27;2.42;;;1.95;;
20336;SDS011;10326;53.660;10.200;2023-02-28T14:36:16;2.47;;;2.15;;
20336;SDS011;10326;53.660;10.200;2023-02-28T14:38:47;2.28;;;2.03;;
20336;SDS011;10326;53.660;10.200;2023-02-28T14:41:21;3.25;;;2.38;;
20336;SDS011;10326;53.660;10.200;2023-02-28T14:43:52;4.53;;;3.80;;
20336;SDS011;10326;53.660;10.200;2023-02-28T14:46:24;3.83;;;3.33;;
20336;SDS011;10326;53.660;10.200;2023-02-28T14:48:56;4.72;;;3.70;;
20336;SDS011;10326;53.660;10.200;2023-02-28T14:51:24;5.35;;;3.97;;
20336;SDS011;10326;53.660;10.200;2023-02-28T14:53:55;4.05;;;3.50;;
20336;SDS011;10326;53.660;10.200;2023-02-28T14:56:29;3.85;;;3.47;;
20336;SDS011;10326;53.660;10.200;2023-02-28T14:59:01;2.78;;;2.40;;
20336;SDS011;10326;53.660;10.200;2023-02-28T15:01:28;3.72;;;2.30;;
20336;SDS011;10326;53.660;10.200;2023-02-28T15:03:57;2.20;;;2.00;;
20336;SDS011;10326;53.660;10.200;2023-02-28T15:06:28;2.47;;;2.25;;
20336;SDS011;10326;53.660;10.200;2023-02-28T15:09:07;3.53;;;2.17;;
20336;SDS011;10326;53.660;10.200;2023-02-28T15:11:44;2.35;;;2.15;;
20336;SDS011;10326;53.660;10.200;2023-02-28T15:14:15;3.38;;;2.10;;
20336;SDS011;10326;53.660;10.200;2023-02-28T15:16:46;3.05;;;2.33;;
20336;SDS011;10326;53.660;10.200;2023-02-28T15:19:20;2.33;;;2.13;;
20336;SDS011;10326;53.660;10.200;2023-02-28T15:21:51;3.55;;;2.20;;
20336;SDS011;10326;53.660;10.200;2023-02-28T15:24:27;2.20;;;2.03;;
20336;SDS011;10326;53.660;10.200;2023-02-28T15:27:04;3.28;;;2.08;;
20336;SDS011;10326;53.660;10.200;2023-02-28T15:29:37;2.67;;;1.80;;
20336;SDS011;10326;53.660;10.200;2023-02-28T15:32:21;2.67;;;2.00;;
20336;SDS011;10326;53.660;10.200;2023-02-28T15:34:54;2.72;;;2.28;;
20336;SDS011;10326;53.660;10.200;2023-02-28T15:37:26;1.85;;;1.58;;